createdAt,value
2019-02-04T00:01:00.755Z,-1.12
2019-02-04T00:03:30.561Z,-1.19
2019-02-04T00:06:00.157Z,-1.21
2019-02-04T00:08:29.935Z,-1.26
2019-02-04T00:10:59.546Z,-1.36
2019-02-04T00:13:29.269Z,-1.39
2019-02-04T00:15:58.979Z,-1.44
2019-02-04T00:18:28.710Z,-1.46
2019-02-04T00:20:58.224Z,-1.50
2019-02-04T00:23:27.871Z,-1.55
2019-02-04T00:25:57.412Z,-1.37
2019-02-04T00:28:26.978Z,-1.09
2019-02-04T00:30:56.535Z,-1.19
2019-02-04T00:33:26.099Z,-1.24
2019-02-04T00:35:55.959Z,-1.28
2019-02-04T00:38:25.571Z,-1.28
2019-02-04T00:40:55.076Z,-1.31
2019-02-04T00:43:24.619Z,-1.37
2019-02-04T00:45:54.180Z,-1.28
2019-02-04T00:48:23.781Z,-1.29
2019-02-04T00:50:53.506Z,-1.35
2019-02-04T00:53:22.984Z,-1.37
2019-02-04T00:55:52.622Z,-1.37
2019-02-04T00:58:22.264Z,-1.48
2019-02-04T01:00:51.877Z,-1.49
2019-02-04T01:03:21.688Z,-1.50
2019-02-04T01:05:51.266Z,-1.48
2019-02-04T01:08:20.795Z,-1.43
2019-02-04T01:10:50.419Z,-1.38
2019-02-04T01:13:20.068Z,-1.41
2019-02-04T01:15:49.671Z,-1.39
2019-02-04T01:18:19.858Z,-1.43
2019-02-04T01:20:49.449Z,-1.47
2019-02-04T01:23:19.077Z,-1.53
2019-02-04T01:25:48.717Z,-1.57
2019-02-04T01:28:18.301Z,-1.61
2019-02-04T01:30:47.816Z,-1.55
2019-02-04T01:33:17.365Z,-1.62
2019-02-04T01:35:46.890Z,-1.56
2019-02-04T01:38:16.484Z,-1.34
2019-02-04T01:40:46.004Z,-1.03
2019-02-04T01:43:15.531Z,-0.94
2019-02-04T01:45:45.549Z,-0.72
2019-02-04T01:48:15.319Z,-0.56
2019-02-04T01:50:44.862Z,-0.66
2019-02-04T01:53:14.373Z,-0.74
2019-02-04T01:55:43.879Z,-0.76
2019-02-04T01:58:13.632Z,-0.67
2019-02-04T02:00:43.415Z,-0.80
2019-02-04T02:03:13.049Z,-0.85
2019-02-04T02:05:42.581Z,-0.82
2019-02-04T02:08:12.108Z,-0.91
2019-02-04T02:10:41.715Z,-0.89
2019-02-04T02:13:11.887Z,-0.87
2019-02-04T02:15:41.356Z,-0.92
2019-02-04T02:18:10.971Z,-0.76
2019-02-04T02:20:40.461Z,-0.78
2019-02-04T02:23:16.794Z,-0.75
2019-02-04T02:25:48.451Z,-0.74
2019-02-04T02:28:18.020Z,-0.49
2019-02-04T02:30:47.559Z,-0.66
2019-02-04T02:33:17.106Z,-0.59
2019-02-04T02:35:46.625Z,-0.70
2019-02-04T02:38:17.339Z,-0.71
2019-02-04T02:40:46.984Z,-0.76
2019-02-04T02:43:16.508Z,-0.77
2019-02-04T02:45:46.016Z,-0.78
2019-02-04T02:48:15.570Z,-0.73
2019-02-04T02:50:45.118Z,-0.76
2019-02-04T02:53:14.604Z,-0.82
2019-02-04T02:55:44.244Z,-0.84
2019-02-04T02:58:13.864Z,-0.90
2019-02-04T03:00:43.407Z,-0.87
2019-02-04T03:03:13.057Z,-0.97
2019-02-04T03:05:42.595Z,-0.99
2019-02-04T03:08:12.399Z,-0.91
2019-02-04T03:10:42.220Z,-1.00
2019-02-04T03:13:12.096Z,-0.92
2019-02-04T03:15:42.208Z,-0.91
2019-02-04T03:18:11.927Z,-1.02
2019-02-04T03:20:41.720Z,-1.03
2019-02-04T03:23:11.764Z,-1.00
2019-02-04T03:25:41.834Z,-1.04
2019-02-04T03:28:11.509Z,-0.90
2019-02-04T03:30:41.034Z,-1.00
2019-02-04T03:33:10.513Z,-0.93
2019-02-04T03:35:40.009Z,-0.84
2019-02-04T03:38:09.887Z,-0.82
2019-02-04T03:40:39.393Z,-0.71
2019-02-04T03:43:08.917Z,-0.71
2019-02-04T03:45:38.469Z,-0.61
2019-02-04T03:48:09.403Z,-0.57
2019-02-04T03:50:39.313Z,-0.68
2019-02-04T03:53:08.854Z,-0.64
2019-02-04T03:55:38.511Z,-0.54
2019-02-04T03:58:08.047Z,-0.48
2019-02-04T04:00:37.615Z,-0.39
2019-02-04T04:03:07.657Z,-0.46
2019-02-04T04:05:37.282Z,-0.47
2019-02-04T04:08:06.985Z,-0.49
2019-02-04T04:10:36.584Z,-0.47
2019-02-04T04:13:06.412Z,-0.43
2019-02-04T04:15:35.979Z,-0.40
2019-02-04T04:18:15.368Z,-0.34
2019-02-04T04:20:37.782Z,-0.45
2019-02-04T04:23:07.390Z,-0.43
2019-02-04T04:25:37.112Z,-0.50
2019-02-04T04:28:06.819Z,-0.49
2019-02-04T04:30:37.605Z,-0.53
2019-02-04T04:33:07.077Z,-0.48
2019-02-04T04:35:36.671Z,-0.56
2019-02-04T04:38:06.344Z,-0.43
2019-02-04T04:40:36.067Z,-0.39
2019-02-04T04:43:05.570Z,-0.43
2019-02-04T04:45:35.385Z,-0.56
2019-02-04T04:48:04.883Z,-0.42
2019-02-04T04:50:34.422Z,-0.35
2019-02-04T04:53:03.903Z,-0.38
2019-02-04T04:55:33.480Z,-0.36
2019-02-04T04:58:02.958Z,-0.18
2019-02-04T05:00:32.576Z,-0.13
2019-02-04T05:03:02.142Z,-0.12
2019-02-04T05:05:31.720Z,-0.05
2019-02-04T05:08:01.215Z,-0.21
2019-02-04T05:10:30.835Z,-0.19
2019-02-04T05:13:00.548Z,-0.10
2019-02-04T05:15:30.117Z,-0.08
2019-02-04T05:17:59.572Z,-0.10
2019-02-04T05:20:29.093Z,-0.29
2019-02-04T05:22:58.603Z,-0.11
2019-02-04T05:25:28.413Z,-0.16
2019-02-04T05:27:58.113Z,-0.08
2019-02-04T05:30:27.640Z,-0.01
2019-02-04T05:32:57.148Z,0.00
2019-02-04T05:35:26.743Z,-0.02
2019-02-04T05:37:56.252Z,0.11
2019-02-04T05:40:25.744Z,0.09
2019-02-04T05:42:55.268Z,0.05
2019-02-04T05:45:25.113Z,0.19
2019-02-04T05:48:00.894Z,0.22
2019-02-04T05:50:30.480Z,0.21
2019-02-04T05:53:00.170Z,0.19
2019-02-04T05:55:30.679Z,0.14
2019-02-04T05:58:00.441Z,0.18
2019-02-04T06:00:34.323Z,0.26
2019-02-04T06:03:04.044Z,0.28
2019-02-04T06:05:33.556Z,0.15
2019-02-04T06:08:03.307Z,0.26
2019-02-04T06:10:32.854Z,0.29
2019-02-04T06:13:02.409Z,0.34
2019-02-04T06:15:32.021Z,0.45
2019-02-04T06:18:01.599Z,0.31
2019-02-04T06:20:31.143Z,0.34
2019-02-04T06:23:00.673Z,0.35
2019-02-04T06:25:30.189Z,0.33
2019-02-04T06:28:00.063Z,0.34
2019-02-04T06:30:29.537Z,0.50
2019-02-04T06:32:59.357Z,0.44
2019-02-04T06:35:29.399Z,0.43
2019-02-04T06:37:59.031Z,0.46
2019-02-04T06:40:28.575Z,0.53
2019-02-04T06:42:58.151Z,0.51
2019-02-04T06:45:27.660Z,0.50
2019-02-04T06:47:57.313Z,0.51
2019-02-04T06:50:28.214Z,0.50
2019-02-04T06:52:57.657Z,0.46
2019-02-04T06:55:33.910Z,0.42
2019-02-04T06:58:03.363Z,0.45
2019-02-04T07:00:33.158Z,0.46
2019-02-04T07:03:03.142Z,0.55
2019-02-04T07:05:43.159Z,0.40
2019-02-04T07:08:04.032Z,0.51
2019-02-04T07:10:33.573Z,0.43
2019-02-04T07:13:03.251Z,0.45
2019-02-04T07:15:32.960Z,0.54
2019-02-04T07:18:02.446Z,0.46
2019-02-04T07:20:32.028Z,0.46
2019-02-04T07:23:01.483Z,0.56
2019-02-04T07:25:31.166Z,0.59
2019-02-04T07:28:09.063Z,0.58
2019-02-04T07:30:39.144Z,0.51
2019-02-04T07:33:08.626Z,0.62
2019-02-04T07:35:38.152Z,0.76
2019-02-04T07:38:07.742Z,0.83
2019-02-04T07:40:37.279Z,0.85
2019-02-04T07:43:06.793Z,0.83
2019-02-04T07:45:36.717Z,0.96
2019-02-04T07:48:06.303Z,1.02
2019-02-04T07:50:35.799Z,1.12
2019-02-04T07:53:05.300Z,1.20
2019-02-04T07:55:34.889Z,1.22
2019-02-04T07:58:04.424Z,1.18
2019-02-04T08:00:34.297Z,1.24
2019-02-04T08:03:03.966Z,1.22
2019-02-04T08:05:33.516Z,1.18
2019-02-04T08:08:03.037Z,1.17
2019-02-04T08:10:32.527Z,1.30
2019-02-04T08:13:02.453Z,1.32
2019-02-04T08:15:36.810Z,1.42
2019-02-04T08:18:07.026Z,1.48
2019-02-04T08:20:36.600Z,1.49
2019-02-04T08:23:06.137Z,1.57
2019-02-04T08:25:35.714Z,1.69
2019-02-04T08:28:05.264Z,1.86
2019-02-04T08:30:38.341Z,1.87
2019-02-04T08:33:07.613Z,1.93
2019-02-04T08:35:37.142Z,1.86
2019-02-04T08:38:06.754Z,1.79
2019-02-04T08:40:36.738Z,1.85
2019-02-04T08:43:06.584Z,1.80
2019-02-04T08:45:36.032Z,1.86
2019-02-04T08:48:05.728Z,1.88
2019-02-04T08:50:35.241Z,1.97
2019-02-04T08:53:04.849Z,2.03
2019-02-04T08:55:34.831Z,2.03
2019-02-04T08:58:04.715Z,1.96
2019-02-04T09:00:35.242Z,2.10
2019-02-04T09:03:04.770Z,2.16
2019-02-04T09:05:34.494Z,2.18
2019-02-04T09:08:04.102Z,2.26
2019-02-04T09:10:34.056Z,2.11
2019-02-04T09:13:03.632Z,2.25
2019-02-04T09:15:33.181Z,2.55
2019-02-04T09:18:02.828Z,2.47
2019-02-04T09:20:32.352Z,2.87
2019-02-04T09:23:01.965Z,2.88
2019-02-04T09:25:31.952Z,3.09
2019-02-04T09:28:01.579Z,2.97
2019-02-04T09:30:31.297Z,3.05
2019-02-04T09:33:00.824Z,3.30
2019-02-04T09:35:30.404Z,3.49
2019-02-04T09:37:59.917Z,3.59
2019-02-04T09:40:32.834Z,3.55
2019-02-04T09:43:02.438Z,3.50
2019-02-04T09:45:32.040Z,3.39
2019-02-04T09:48:01.936Z,3.54
2019-02-04T09:50:43.011Z,3.46
2019-02-04T09:53:12.663Z,3.30
2019-02-04T09:55:42.172Z,3.30
2019-02-04T09:58:11.704Z,3.39
2019-02-04T10:00:41.166Z,3.38
2019-02-04T10:03:10.914Z,3.44
2019-02-04T10:05:40.624Z,3.50
2019-02-04T10:08:10.475Z,3.61
2019-02-04T10:10:40.110Z,3.60
2019-02-04T10:13:09.664Z,3.64
2019-02-04T10:15:42.281Z,3.67
2019-02-04T10:18:12.368Z,3.63
2019-02-04T10:20:42.394Z,3.75
2019-02-04T10:23:11.942Z,3.67
2019-02-04T10:25:43.175Z,3.66
2019-02-04T10:28:14.953Z,3.55
2019-02-04T10:30:44.909Z,3.66
2019-02-04T10:33:14.802Z,3.40
2019-02-04T10:35:44.391Z,3.47
2019-02-04T10:38:16.379Z,3.53
2019-02-04T10:40:45.281Z,3.37
2019-02-04T10:43:15.051Z,3.58
2019-02-04T10:45:44.733Z,3.51
2019-02-04T10:48:14.323Z,3.52
2019-02-04T10:50:46.708Z,3.36
2019-02-04T10:53:17.147Z,3.45
2019-02-04T10:55:46.845Z,3.41
2019-02-04T10:58:16.475Z,3.42
2019-02-04T11:00:46.465Z,3.43
2019-02-04T11:03:16.040Z,3.32
2019-02-04T11:05:45.715Z,3.39
2019-02-04T11:08:15.308Z,3.34
2019-02-04T11:10:44.740Z,3.34
2019-02-04T11:13:16.087Z,3.37
2019-02-04T11:15:45.983Z,3.51
2019-02-04T11:18:16.189Z,3.43
2019-02-04T11:20:57.237Z,3.37
2019-02-04T11:23:17.082Z,3.50
2019-02-04T11:25:46.846Z,3.52
2019-02-04T11:28:16.914Z,3.51
2019-02-04T11:30:49.597Z,3.51
2019-02-04T11:33:19.184Z,3.53
2019-02-04T11:35:48.699Z,3.46
2019-02-04T11:38:18.755Z,3.45
2019-02-04T11:40:48.750Z,3.63
2019-02-04T11:43:18.748Z,3.65
2019-02-04T11:45:48.413Z,3.46
2019-02-04T11:48:18.527Z,3.51
2019-02-04T11:50:48.060Z,3.33
2019-02-04T11:53:17.697Z,3.39
2019-02-04T11:55:47.728Z,3.55
2019-02-04T11:58:17.398Z,3.43
2019-02-04T12:00:47.040Z,3.53
2019-02-04T12:03:16.824Z,3.64
2019-02-04T12:05:46.531Z,3.55
2019-02-04T12:08:16.456Z,3.51
2019-02-04T12:10:49.445Z,3.56
2019-02-04T12:13:19.362Z,3.46
2019-02-04T12:15:49.133Z,3.60
2019-02-04T12:18:18.655Z,3.63
2019-02-04T12:20:48.546Z,3.62
2019-02-04T12:23:18.369Z,3.81
2019-02-04T12:25:48.246Z,3.68
2019-02-04T12:28:18.425Z,3.56
2019-02-04T12:30:48.249Z,3.62
2019-02-04T12:33:18.017Z,3.59
2019-02-04T12:35:47.896Z,3.67
2019-02-04T12:38:18.173Z,3.73
2019-02-04T12:40:47.859Z,3.69
2019-02-04T12:43:17.316Z,3.69
2019-02-04T12:45:47.030Z,3.64
2019-02-04T12:48:16.655Z,3.72
2019-02-04T12:50:46.513Z,3.66
2019-02-04T12:53:16.171Z,3.73
2019-02-04T12:55:45.732Z,3.70
2019-02-04T12:58:15.397Z,3.65
2019-02-04T13:00:45.200Z,3.80
2019-02-04T13:03:14.696Z,3.79
2019-02-04T13:05:49.468Z,3.73
2019-02-04T13:08:18.937Z,3.63
2019-02-04T13:10:48.544Z,3.83
2019-02-04T13:13:18.730Z,3.77
2019-02-04T13:15:48.221Z,3.83
2019-02-04T13:18:17.701Z,3.91
2019-02-04T13:20:47.397Z,3.76
2019-02-04T13:23:17.074Z,3.88
2019-02-04T13:25:46.675Z,3.84
2019-02-04T13:28:17.252Z,3.70
2019-02-04T13:30:46.882Z,3.73
2019-02-04T13:33:16.527Z,3.89
2019-02-04T13:35:47.317Z,3.83
2019-02-04T13:38:16.883Z,3.79
2019-02-04T13:40:46.466Z,3.98
2019-02-04T13:43:16.038Z,3.80
2019-02-04T13:45:45.749Z,3.83
2019-02-04T13:48:15.582Z,3.79
2019-02-04T13:50:45.420Z,3.85
2019-02-04T13:53:14.887Z,3.76
2019-02-04T13:55:44.504Z,3.82
2019-02-04T13:58:14.544Z,3.76
2019-02-04T14:00:44.406Z,3.80
2019-02-04T14:03:13.894Z,3.70
2019-02-04T14:05:43.669Z,3.77
2019-02-04T14:08:13.399Z,3.78
2019-02-04T14:10:46.114Z,3.79
2019-02-04T14:13:14.948Z,3.78
2019-02-04T14:15:44.937Z,3.66
2019-02-04T14:18:14.740Z,3.70
2019-02-04T14:20:44.461Z,3.75
2019-02-04T14:23:14.212Z,3.66
2019-02-04T14:25:44.154Z,3.79
2019-02-04T14:28:13.985Z,3.72
2019-02-04T14:30:43.746Z,3.82
2019-02-04T14:33:13.336Z,3.78
2019-02-04T14:35:43.345Z,3.80
2019-02-04T14:38:12.824Z,3.70
2019-02-04T14:40:42.334Z,3.76
2019-02-04T14:43:23.972Z,3.64
2019-02-04T14:45:56.970Z,3.71
2019-02-04T14:48:52.652Z,3.76
2019-02-04T14:51:52.700Z,3.72
2019-02-04T14:55:01.679Z,3.81
2019-02-04T14:57:40.235Z,3.76
2019-02-04T15:00:21.973Z,3.75
2019-02-04T15:03:19.409Z,3.70
2019-02-04T15:05:53.471Z,3.67
2019-02-04T15:08:38.438Z,3.74
2019-02-04T15:11:26.256Z,3.73
2019-02-04T15:14:05.557Z,3.73
2019-02-04T15:16:42.465Z,3.62
2019-02-04T15:19:26.930Z,3.69
2019-02-04T15:22:19.443Z,3.66
2019-02-04T15:25:17.235Z,3.69
2019-02-04T15:28:02.364Z,3.62
2019-02-04T15:30:43.787Z,3.65
2019-02-04T15:33:34.711Z,3.60
2019-02-04T15:36:25.383Z,3.60
2019-02-04T15:38:58.131Z,3.65
2019-02-04T15:41:40.018Z,3.61
2019-02-04T15:44:32.532Z,3.53
2019-02-04T15:47:08.251Z,3.49
2019-02-04T15:49:55.670Z,3.44
2019-02-04T15:52:26.789Z,3.66
2019-02-04T15:54:56.789Z,3.52
2019-02-04T15:57:26.256Z,3.59
2019-02-04T15:59:55.829Z,3.49
2019-02-04T16:02:25.573Z,3.51
2019-02-04T16:04:55.132Z,3.35
2019-02-04T16:07:24.621Z,3.36
2019-02-04T16:09:54.111Z,3.46
2019-02-04T16:12:23.613Z,3.37
2019-02-04T16:14:53.284Z,3.42
2019-02-04T16:17:22.762Z,3.46
2019-02-04T16:19:53.505Z,3.43
2019-02-04T16:22:23.150Z,3.46
2019-02-04T16:24:53.103Z,3.50
2019-02-04T16:27:22.668Z,3.47
2019-02-04T16:29:52.133Z,3.44
2019-02-04T16:32:21.661Z,3.46
2019-02-04T16:34:51.210Z,3.56
2019-02-04T16:37:20.682Z,3.50
2019-02-04T16:39:50.404Z,3.62
2019-02-04T16:42:19.919Z,3.42
2019-02-04T16:44:49.398Z,3.42
2019-02-04T16:47:19.054Z,3.37
2019-02-04T16:49:48.675Z,3.43
2019-02-04T16:52:18.758Z,3.44
2019-02-04T16:54:48.563Z,3.38
2019-02-04T16:57:18.139Z,3.44
2019-02-04T16:59:47.780Z,3.41
2019-02-04T17:02:17.268Z,3.41
2019-02-04T17:04:46.731Z,3.50
2019-02-04T17:07:16.358Z,3.34
2019-02-04T17:09:45.903Z,3.22
2019-02-04T17:12:15.948Z,3.18
2019-02-04T17:14:45.696Z,3.08
2019-02-04T17:17:15.309Z,3.08
2019-02-04T17:19:44.883Z,3.01
2019-02-04T17:22:14.392Z,2.99
2019-02-04T17:24:44.337Z,2.84
2019-02-04T17:27:14.254Z,2.81
2019-02-04T17:29:43.898Z,2.63
2019-02-04T17:32:13.870Z,2.58
2019-02-04T17:34:43.460Z,2.55
2019-02-04T17:37:13.452Z,2.36
2019-02-04T17:39:46.112Z,2.34
2019-02-04T17:42:15.671Z,2.26
2019-02-04T17:44:45.497Z,2.17
2019-02-04T17:47:15.076Z,2.23
2019-02-04T17:49:44.521Z,2.31
2019-02-04T17:52:14.276Z,2.26
2019-02-04T17:54:44.388Z,2.23
2019-02-04T17:57:14.275Z,2.26
2019-02-04T17:59:44.153Z,2.23
2019-02-04T18:02:13.826Z,2.30
2019-02-04T18:04:43.278Z,2.23
2019-02-04T18:07:12.777Z,2.28
2019-02-04T18:09:42.406Z,2.32
2019-02-04T18:12:12.192Z,2.23
2019-02-04T18:14:42.163Z,2.35
2019-02-04T18:17:11.884Z,2.27
2019-02-04T18:19:42.026Z,2.28
2019-02-04T18:22:11.539Z,2.33
2019-02-04T18:24:41.205Z,2.38
2019-02-04T18:27:11.028Z,2.40
2019-02-04T18:29:40.559Z,2.42
2019-02-04T18:32:10.420Z,2.46
2019-02-04T18:34:39.984Z,2.49
2019-02-04T18:37:09.731Z,2.54
2019-02-04T18:39:39.290Z,2.52
2019-02-04T18:42:08.779Z,2.54
2019-02-04T18:44:38.776Z,2.53
2019-02-04T18:47:11.118Z,2.58
2019-02-04T18:49:39.540Z,2.68
2019-02-04T18:52:09.033Z,2.59
2019-02-04T18:54:38.884Z,2.72
2019-02-04T18:57:08.435Z,2.79
2019-02-04T18:59:38.172Z,2.76
2019-02-04T19:02:07.755Z,2.77
2019-02-04T19:04:37.310Z,2.93
2019-02-04T19:07:07.447Z,3.02
2019-02-04T19:09:37.068Z,3.02
2019-02-04T19:12:06.827Z,3.09
2019-02-04T19:14:36.525Z,2.98
2019-02-04T19:17:06.035Z,3.00
2019-02-04T19:19:35.496Z,2.95
2019-02-04T19:22:04.977Z,2.92
2019-02-04T19:24:34.656Z,3.03
2019-02-04T19:27:04.356Z,3.08
2019-02-04T19:29:34.431Z,3.06
2019-02-04T19:32:04.343Z,3.03
2019-02-04T19:34:34.427Z,2.99
2019-02-04T19:37:04.026Z,3.03
2019-02-04T19:39:33.785Z,2.97
2019-02-04T19:42:03.423Z,3.00
2019-02-04T19:44:33.347Z,3.01
2019-02-04T19:47:03.110Z,3.03
2019-02-04T19:49:32.696Z,3.12
2019-02-04T19:52:02.392Z,2.94
2019-02-04T19:54:32.001Z,2.93
2019-02-04T19:57:02.002Z,2.85
2019-02-04T19:59:33.326Z,2.81
2019-02-04T20:02:02.775Z,2.75
2019-02-04T20:04:32.332Z,2.76
2019-02-04T20:07:02.271Z,2.69
2019-02-04T20:09:33.526Z,2.67
2019-02-04T20:12:03.274Z,2.64
2019-02-04T20:14:32.883Z,2.56
2019-02-04T20:17:02.771Z,2.53
2019-02-04T20:19:32.522Z,2.50
2019-02-04T20:22:02.170Z,2.43
2019-02-04T20:24:33.587Z,2.49
2019-02-04T20:27:03.208Z,2.52
2019-02-04T20:29:33.054Z,2.39
2019-02-04T20:32:03.163Z,2.39
2019-02-04T20:34:32.906Z,2.37
2019-02-04T20:37:02.419Z,2.40
2019-02-04T20:39:32.015Z,2.32
2019-02-04T20:42:01.581Z,2.32
2019-02-04T20:44:31.179Z,2.22
2019-02-04T20:47:00.774Z,2.36
2019-02-04T20:49:30.370Z,2.29
2019-02-04T20:51:59.900Z,2.27
2019-02-04T20:54:29.417Z,2.25
2019-02-04T20:56:59.083Z,2.17
2019-02-04T20:59:28.661Z,2.26
2019-02-04T21:01:58.272Z,2.27
2019-02-04T21:04:27.827Z,2.21
2019-02-04T21:06:57.352Z,2.26
2019-02-04T21:09:27.223Z,2.14
2019-02-04T21:11:56.847Z,2.24
2019-02-04T21:14:26.479Z,2.16
2019-02-04T21:16:56.190Z,2.22
2019-02-04T21:19:25.783Z,2.18
2019-02-04T21:21:55.315Z,2.16
2019-02-04T21:24:25.414Z,2.19
2019-02-04T21:26:54.994Z,2.27
2019-02-04T21:29:24.647Z,2.14
2019-02-04T21:31:54.182Z,2.12
2019-02-04T21:34:23.699Z,2.06
2019-02-04T21:36:53.232Z,2.03
2019-02-04T21:39:23.070Z,2.03
2019-02-04T21:41:52.617Z,2.04
2019-02-04T21:44:22.159Z,2.10
2019-02-04T21:46:51.719Z,2.09
2019-02-04T21:49:21.508Z,2.12
2019-02-04T21:51:51.007Z,2.21
2019-02-04T21:54:20.577Z,2.24
2019-02-04T21:56:50.052Z,2.14
2019-02-04T21:59:19.786Z,2.15
2019-02-04T22:01:49.267Z,2.16
2019-02-04T22:04:18.869Z,2.12
2019-02-04T22:06:48.362Z,2.16
2019-02-04T22:09:18.143Z,2.13
2019-02-04T22:11:47.654Z,2.21
2019-02-04T22:14:17.604Z,2.32
2019-02-04T22:16:47.154Z,2.24
2019-02-04T22:19:21.239Z,2.24
2019-02-04T22:21:50.808Z,2.37
2019-02-04T22:24:20.349Z,2.30
2019-02-04T22:26:49.901Z,2.35
2019-02-04T22:29:19.888Z,2.31
2019-02-04T22:31:49.428Z,2.31
2019-02-04T22:34:19.481Z,2.40
2019-02-04T22:36:49.087Z,2.34
2019-02-04T22:39:18.723Z,2.42
2019-02-04T22:41:48.302Z,2.38
2019-02-04T22:44:17.792Z,2.38
2019-02-04T22:46:47.415Z,2.42
2019-02-04T22:49:17.049Z,2.51
2019-02-04T22:51:46.544Z,2.44
2019-02-04T22:54:17.055Z,2.44
2019-02-04T22:56:46.601Z,2.55
2019-02-04T22:59:16.117Z,2.46
2019-02-04T23:01:46.274Z,2.48
2019-02-04T23:04:15.885Z,2.54
2019-02-04T23:06:45.620Z,2.54
2019-02-04T23:09:15.220Z,2.53
2019-02-04T23:11:44.828Z,2.60
2019-02-04T23:14:14.359Z,2.57
2019-02-04T23:16:43.840Z,2.61
2019-02-04T23:19:13.338Z,2.61
2019-02-04T23:21:42.960Z,2.65
2019-02-04T23:24:12.719Z,2.62
2019-02-04T23:26:42.393Z,2.56
2019-02-04T23:29:11.861Z,2.57
2019-02-04T23:31:41.402Z,2.59
2019-02-04T23:34:10.886Z,2.61
2019-02-04T23:36:40.460Z,2.63
2019-02-04T23:39:10.011Z,2.59
2019-02-04T23:41:39.617Z,2.58
2019-02-04T23:44:09.276Z,2.62
2019-02-04T23:46:38.759Z,2.65
2019-02-04T23:49:08.801Z,2.53
2019-02-04T23:51:38.376Z,2.65
2019-02-04T23:54:07.851Z,2.60
2019-02-04T23:56:37.443Z,2.65
2019-02-04T23:59:07.046Z,2.56
